createdAt,value
2018-11-29T00:01:09.969Z,4.24
2018-11-29T00:03:39.645Z,4.27
2018-11-29T00:06:25.072Z,4.28
2018-11-29T00:08:54.732Z,4.31
2018-11-29T00:11:24.377Z,4.31
2018-11-29T00:13:54.042Z,4.32
2018-11-29T00:16:23.698Z,4.34
2018-11-29T00:18:53.370Z,4.38
2018-11-29T00:21:23.017Z,4.46
2018-11-29T00:23:52.673Z,4.42
2018-11-29T00:26:22.321Z,4.47
2018-11-29T00:28:51.985Z,4.50
2018-11-29T00:31:21.645Z,4.51
2018-11-29T00:33:51.309Z,4.48
2018-11-29T00:36:20.960Z,4.51
2018-11-29T00:38:50.645Z,4.53
2018-11-29T00:41:20.310Z,4.54
2018-11-29T00:43:49.986Z,4.56
2018-11-29T00:46:19.646Z,4.60
2018-11-29T00:48:49.322Z,4.54
2018-11-29T00:51:18.981Z,4.58
2018-11-29T00:53:48.667Z,4.58
2018-11-29T00:56:18.399Z,4.61
2018-11-29T00:58:48.069Z,4.57
2018-11-29T01:01:17.730Z,4.62
2018-11-29T01:03:47.411Z,4.62
2018-11-29T01:06:17.160Z,4.63
2018-11-29T01:08:46.825Z,4.69
2018-11-29T01:11:16.511Z,4.69
2018-11-29T01:13:46.185Z,4.67
2018-11-29T01:16:15.853Z,4.69
2018-11-29T01:18:45.648Z,4.65
2018-11-29T01:21:15.319Z,4.70
2018-11-29T01:23:45.001Z,4.65
2018-11-29T01:26:14.685Z,4.65
2018-11-29T01:28:44.503Z,4.67
2018-11-29T01:31:14.185Z,4.70
2018-11-29T01:33:43.869Z,4.73
2018-11-29T01:36:13.549Z,4.74
2018-11-29T01:38:43.217Z,4.77
2018-11-29T01:41:12.893Z,4.76
2018-11-29T01:43:42.573Z,4.74
2018-11-29T01:46:12.254Z,4.78
2018-11-29T01:48:41.929Z,4.77
2018-11-29T01:51:11.617Z,4.81
2018-11-29T01:53:41.301Z,4.82
2018-11-29T01:56:10.980Z,4.78
2018-11-29T01:58:40.646Z,4.89
2018-11-29T02:01:10.388Z,4.85
2018-11-29T02:03:40.057Z,4.87
2018-11-29T02:06:09.738Z,4.85
2018-11-29T02:08:39.415Z,4.89
2018-11-29T02:11:09.099Z,4.86
2018-11-29T02:13:38.782Z,4.83
2018-11-29T02:16:08.465Z,4.87
2018-11-29T02:18:38.213Z,4.90
2018-11-29T02:21:08.120Z,4.92
2018-11-29T02:23:37.805Z,4.91
2018-11-29T02:26:07.489Z,4.91
2018-11-29T02:28:37.161Z,4.95
2018-11-29T02:31:06.849Z,4.90
2018-11-29T02:33:36.556Z,4.94
2018-11-29T02:36:06.438Z,4.97
2018-11-29T02:38:36.488Z,4.95
2018-11-29T02:41:06.666Z,4.97
2018-11-29T02:43:36.369Z,4.94
2018-11-29T02:46:06.209Z,4.95
2018-11-29T02:48:36.037Z,5.01
2018-11-29T02:51:05.905Z,5.04
2018-11-29T02:53:35.592Z,5.05
2018-11-29T02:56:05.266Z,5.03
2018-11-29T02:58:35.057Z,5.03
2018-11-29T03:01:04.773Z,5.02
2018-11-29T03:03:34.491Z,5.05
2018-11-29T03:06:04.173Z,5.08
2018-11-29T03:08:33.857Z,5.08
2018-11-29T03:11:03.537Z,5.07
2018-11-29T03:13:33.259Z,5.02
2018-11-29T03:16:02.929Z,5.07
2018-11-29T03:18:32.623Z,5.14
2018-11-29T03:21:02.284Z,5.09
2018-11-29T03:23:31.966Z,5.06
2018-11-29T03:26:01.657Z,5.13
2018-11-29T03:28:31.322Z,5.14
2018-11-29T03:31:00.999Z,5.15
2018-11-29T03:33:30.669Z,5.22
2018-11-29T03:36:00.362Z,5.19
2018-11-29T03:38:30.151Z,5.19
2018-11-29T03:40:59.837Z,5.15
2018-11-29T03:43:29.793Z,5.17
2018-11-29T03:45:59.474Z,5.18
2018-11-29T03:48:29.238Z,5.27
2018-11-29T03:50:58.915Z,5.25
2018-11-29T03:53:28.683Z,5.33
2018-11-29T03:55:58.362Z,5.33
2018-11-29T03:58:28.068Z,5.29
2018-11-29T04:00:57.751Z,5.31
2018-11-29T04:03:27.604Z,5.33
2018-11-29T04:05:57.349Z,5.31
2018-11-29T04:08:27.033Z,5.36
2018-11-29T04:10:56.741Z,5.29
2018-11-29T04:13:26.435Z,5.33
2018-11-29T04:15:56.244Z,5.37
2018-11-29T04:18:25.951Z,5.33
2018-11-29T04:20:55.616Z,5.31
2018-11-29T04:23:25.290Z,5.41
2018-11-29T04:25:55.221Z,5.31
2018-11-29T04:28:24.673Z,5.29
2018-11-29T04:30:54.344Z,5.26
2018-11-29T04:33:24.009Z,5.23
2018-11-29T04:35:53.697Z,5.24
2018-11-29T04:38:23.369Z,5.20
2018-11-29T04:40:53.281Z,5.16
2018-11-29T04:43:22.960Z,5.16
2018-11-29T04:46:03.933Z,5.10
2018-11-29T04:48:33.741Z,5.14
2018-11-29T04:51:03.427Z,5.15
2018-11-29T04:53:33.177Z,5.10
2018-11-29T04:56:02.857Z,5.11
2018-11-29T04:58:32.522Z,5.09
2018-11-29T05:01:02.211Z,5.05
2018-11-29T05:03:32.022Z,4.98
2018-11-29T05:06:01.707Z,4.94
2018-11-29T05:08:31.374Z,4.95
2018-11-29T05:11:02.125Z,4.96
2018-11-29T05:13:31.966Z,4.91
2018-11-29T05:16:01.646Z,4.86
2018-11-29T05:18:32.444Z,4.83
2018-11-29T05:21:01.105Z,4.79
2018-11-29T05:23:30.936Z,4.84
2018-11-29T05:26:00.613Z,4.77
2018-11-29T05:28:30.284Z,4.78
2018-11-29T05:31:00.013Z,4.79
2018-11-29T05:33:30.153Z,4.78
2018-11-29T05:35:59.841Z,4.81
2018-11-29T05:38:29.511Z,4.69
2018-11-29T05:40:59.221Z,4.73
2018-11-29T05:43:28.893Z,4.69
2018-11-29T05:45:58.574Z,4.55
2018-11-29T05:48:28.244Z,4.51
2018-11-29T05:50:58.072Z,4.35
2018-11-29T05:53:27.701Z,4.14
2018-11-29T05:55:57.442Z,4.02
2018-11-29T05:58:27.105Z,3.96
2018-11-29T06:00:57.690Z,3.91
2018-11-29T06:03:27.356Z,3.80
2018-11-29T06:05:57.036Z,3.77
2018-11-29T06:08:26.710Z,3.87
2018-11-29T06:10:56.814Z,3.89
2018-11-29T06:13:26.476Z,3.85
2018-11-29T06:15:56.229Z,3.80
2018-11-29T06:18:25.906Z,3.70
2018-11-29T06:20:55.609Z,3.76
2018-11-29T06:23:25.297Z,3.79
2018-11-29T06:25:55.010Z,3.84
2018-11-29T06:28:24.677Z,3.87
2018-11-29T06:30:54.360Z,3.74
2018-11-29T06:33:24.029Z,3.71
2018-11-29T06:35:53.960Z,3.58
2018-11-29T06:38:23.645Z,3.62
2018-11-29T06:40:53.314Z,3.57
2018-11-29T06:43:22.997Z,3.64
2018-11-29T06:45:52.665Z,3.70
2018-11-29T06:48:22.345Z,3.69
2018-11-29T06:50:52.020Z,3.63
2018-11-29T06:53:26.937Z,3.69
2018-11-29T06:55:56.697Z,3.70
2018-11-29T06:58:26.426Z,3.67
2018-11-29T07:00:56.085Z,3.72
2018-11-29T07:03:28.854Z,3.77
2018-11-29T07:05:55.433Z,3.83
2018-11-29T07:08:25.118Z,3.87
2018-11-29T07:10:54.918Z,3.88
2018-11-29T07:13:24.693Z,3.93
2018-11-29T07:15:54.388Z,3.99
2018-11-29T07:18:24.101Z,4.00
2018-11-29T07:22:02.533Z,3.98
2018-11-29T07:24:32.204Z,4.05
2018-11-29T07:27:01.881Z,4.13
2018-11-29T07:29:31.554Z,4.27
2018-11-29T07:32:01.370Z,4.25
2018-11-29T07:34:31.037Z,4.27
2018-11-29T07:37:00.727Z,4.28
2018-11-29T07:39:30.397Z,4.35
2018-11-29T07:42:00.078Z,4.37
2018-11-29T07:44:29.756Z,4.45
2018-11-29T07:46:59.439Z,4.47
2018-11-29T07:49:29.121Z,4.41
2018-11-29T07:51:58.823Z,4.44
2018-11-29T07:54:28.490Z,4.51
2018-11-29T07:56:58.193Z,4.48
2018-11-29T07:59:27.869Z,4.58
2018-11-29T08:01:57.590Z,4.68
2018-11-29T08:04:27.262Z,4.70
2018-11-29T08:06:56.968Z,4.73
2018-11-29T08:09:26.647Z,4.69
2018-11-29T08:11:56.326Z,4.76
2018-11-29T08:14:26.011Z,4.78
2018-11-29T08:16:55.725Z,4.69
2018-11-29T08:19:25.434Z,4.82
2018-11-29T08:21:55.183Z,4.80
2018-11-29T08:24:24.850Z,4.96
2018-11-29T08:26:54.542Z,4.84
2018-11-29T08:29:24.219Z,4.75
2018-11-29T08:31:53.923Z,4.86
2018-11-29T08:34:23.630Z,4.88
2018-11-29T08:36:53.286Z,4.95
2018-11-29T08:39:22.961Z,5.02
2018-11-29T08:41:52.638Z,5.00
2018-11-29T08:44:22.324Z,4.99
2018-11-29T08:46:52.098Z,4.98
2018-11-29T08:49:21.780Z,5.08
2018-11-29T08:51:51.473Z,5.11
2018-11-29T08:54:21.158Z,5.13
2018-11-29T08:56:50.894Z,5.14
2018-11-29T08:59:20.570Z,5.28
2018-11-29T09:01:50.242Z,5.53
2018-11-29T09:04:19.925Z,5.45
2018-11-29T09:06:49.609Z,5.51
2018-11-29T09:09:19.285Z,5.54
2018-11-29T09:11:48.982Z,5.62
2018-11-29T09:14:18.758Z,5.82
2018-11-29T09:16:48.454Z,5.94
2018-11-29T09:19:18.125Z,5.89
2018-11-29T09:21:47.820Z,6.01
2018-11-29T09:24:17.493Z,6.10
2018-11-29T09:26:47.170Z,5.92
2018-11-29T09:29:16.843Z,6.11
2018-11-29T09:31:46.514Z,6.05
2018-11-29T09:34:16.198Z,6.10
2018-11-29T09:36:45.872Z,6.01
2018-11-29T09:39:15.572Z,6.18
2018-11-29T09:41:45.241Z,6.03
2018-11-29T09:44:14.921Z,6.06
2018-11-29T09:46:44.601Z,6.27
2018-11-29T09:49:14.284Z,6.41
2018-11-29T09:51:43.959Z,6.39
2018-11-29T09:54:13.647Z,6.58
2018-11-29T09:56:43.329Z,6.84
2018-11-29T09:59:13.021Z,7.21
2018-11-29T10:01:42.690Z,7.38
2018-11-29T10:04:12.389Z,7.62
2018-11-29T10:06:42.057Z,7.82
2018-11-29T10:09:11.755Z,7.78
2018-11-29T10:11:41.431Z,7.69
2018-11-29T10:14:11.119Z,7.69
2018-11-29T10:16:40.798Z,7.57
2018-11-29T10:19:10.560Z,7.44
2018-11-29T10:21:40.193Z,7.18
2018-11-29T10:24:09.889Z,7.13
2018-11-29T10:26:39.554Z,7.20
2018-11-29T10:29:09.249Z,7.24
2018-11-29T10:31:39.142Z,7.35
2018-11-29T10:34:08.831Z,7.39
2018-11-29T10:36:38.498Z,7.35
2018-11-29T10:39:08.729Z,7.39
2018-11-29T10:41:38.538Z,7.41
2018-11-29T10:44:08.238Z,7.50
2018-11-29T10:46:37.909Z,7.46
2018-11-29T10:49:07.582Z,7.51
2018-11-29T10:51:37.478Z,7.64
2018-11-29T10:54:07.154Z,7.70
2018-11-29T10:56:36.893Z,7.74
2018-11-29T10:59:06.709Z,7.69
2018-11-29T11:01:49.545Z,7.70
2018-11-29T11:04:19.234Z,7.70
2018-11-29T11:06:48.910Z,7.65
2018-11-29T11:09:20.774Z,7.50
2018-11-29T11:11:50.448Z,7.47
2018-11-29T11:14:20.139Z,7.35
2018-11-29T11:16:49.817Z,7.39
2018-11-29T11:19:19.498Z,7.37
2018-11-29T11:21:49.163Z,7.36
2018-11-29T11:24:18.931Z,7.38
2018-11-29T11:26:48.509Z,7.24
2018-11-29T11:29:18.198Z,7.19
2018-11-29T11:31:47.861Z,7.08
2018-11-29T11:34:17.538Z,7.17
2018-11-29T11:36:47.217Z,7.05
2018-11-29T11:39:16.909Z,7.15
2018-11-29T11:41:46.589Z,7.13
2018-11-29T11:44:16.270Z,7.24
2018-11-29T11:46:45.952Z,7.22
2018-11-29T11:49:15.624Z,7.25
2018-11-29T11:51:45.388Z,7.28
2018-11-29T11:54:15.066Z,7.37
2018-11-29T11:56:44.729Z,7.35
2018-11-29T11:59:14.473Z,7.40
2018-11-29T12:01:44.157Z,7.39
2018-11-29T12:04:13.829Z,7.44
2018-11-29T12:06:43.506Z,7.58
2018-11-29T12:09:13.262Z,7.51
2018-11-29T12:11:42.931Z,7.74
2018-11-29T12:14:12.616Z,7.91
2018-11-29T12:16:42.290Z,7.92
2018-11-29T12:19:11.981Z,7.95
2018-11-29T12:21:41.661Z,7.75
2018-11-29T12:24:11.361Z,7.69
2018-11-29T12:26:41.029Z,7.75
2018-11-29T12:29:10.720Z,7.52
2018-11-29T12:31:40.534Z,7.62
2018-11-29T12:34:10.296Z,7.53
2018-11-29T12:36:39.966Z,7.65
2018-11-29T12:39:10.118Z,7.56
2018-11-29T12:41:39.906Z,7.58
2018-11-29T12:44:09.582Z,7.53
2018-11-29T12:46:39.258Z,7.49
2018-11-29T12:49:08.938Z,7.55
2018-11-29T12:51:38.621Z,7.57
2018-11-29T12:54:08.455Z,7.46
2018-11-29T12:56:38.147Z,7.47
2018-11-29T12:59:07.813Z,7.52
2018-11-29T13:01:37.484Z,7.43
2018-11-29T13:04:07.171Z,7.39
2018-11-29T13:06:36.882Z,7.39
2018-11-29T13:09:09.145Z,7.37
2018-11-29T13:11:38.913Z,7.45
2018-11-29T13:14:08.695Z,7.42
2018-11-29T13:16:38.286Z,7.36
2018-11-29T13:19:07.974Z,7.28
2018-11-29T13:21:37.665Z,7.36
2018-11-29T13:24:07.346Z,7.19
2018-11-29T13:26:37.044Z,7.32
2018-11-29T13:29:06.846Z,7.37
2018-11-29T13:31:36.522Z,7.44
2018-11-29T13:34:06.215Z,7.39
2018-11-29T13:36:35.881Z,7.37
2018-11-29T13:39:07.478Z,7.41
2018-11-29T13:41:37.739Z,7.40
2018-11-29T13:44:07.495Z,7.48
2018-11-29T13:46:37.287Z,7.37
2018-11-29T13:49:06.902Z,7.28
2018-11-29T13:51:36.595Z,7.25
2018-11-29T13:54:06.561Z,7.19
2018-11-29T13:56:36.234Z,7.12
2018-11-29T13:59:05.999Z,7.19
2018-11-29T14:01:35.637Z,7.21
2018-11-29T14:04:05.829Z,7.07
2018-11-29T14:06:35.588Z,7.20
2018-11-29T14:09:08.041Z,7.21
2018-11-29T14:11:37.718Z,7.17
2018-11-29T14:14:08.081Z,7.11
2018-11-29T14:16:37.061Z,7.01
2018-11-29T14:19:06.733Z,7.10
2018-11-29T14:21:36.402Z,6.92
2018-11-29T14:24:06.080Z,6.83
2018-11-29T14:26:35.768Z,6.94
2018-11-29T14:29:05.779Z,6.86
2018-11-29T14:31:35.465Z,6.95
2018-11-29T14:34:05.134Z,6.93
2018-11-29T14:36:34.829Z,6.97
2018-11-29T14:39:05.690Z,6.94
2018-11-29T14:41:35.337Z,6.98
2018-11-29T14:44:05.073Z,7.29
2018-11-29T14:46:34.777Z,7.49
2018-11-29T14:49:04.479Z,7.52
2018-11-29T14:51:34.240Z,7.54
2018-11-29T14:54:03.842Z,7.51
2018-11-29T14:56:33.538Z,7.45
2018-11-29T14:59:03.299Z,7.34
2018-11-29T15:01:33.014Z,7.22
2018-11-29T15:04:02.677Z,7.16
2018-11-29T15:06:33.078Z,7.12
2018-11-29T15:09:02.845Z,7.19
2018-11-29T15:11:33.034Z,7.10
2018-11-29T15:14:02.728Z,7.04
2018-11-29T15:16:32.596Z,7.02
2018-11-29T15:19:02.258Z,6.98
2018-11-29T15:21:31.941Z,6.82
2018-11-29T15:24:01.619Z,6.80
2018-11-29T15:26:31.382Z,6.75
2018-11-29T15:29:01.044Z,6.81
2018-11-29T15:31:30.722Z,6.76
2018-11-29T15:34:00.417Z,6.82
2018-11-29T15:36:30.094Z,7.37
2018-11-29T15:38:59.846Z,7.59
2018-11-29T15:41:29.521Z,7.71
2018-11-29T15:43:59.204Z,7.78
2018-11-29T15:46:28.865Z,7.84
2018-11-29T15:48:58.529Z,7.91
2018-11-29T15:51:28.193Z,7.84
2018-11-29T15:53:57.867Z,7.87
2018-11-29T15:56:27.551Z,7.72
2018-11-29T15:58:57.225Z,7.82
2018-11-29T16:01:26.886Z,8.06
2018-11-29T16:03:56.562Z,7.81
2018-11-29T16:06:26.225Z,7.72
2018-11-29T16:08:56.109Z,7.51
2018-11-29T16:11:25.781Z,7.28
2018-11-29T16:13:55.470Z,7.21
2018-11-29T16:16:25.141Z,7.03
2018-11-29T16:18:54.984Z,6.91
2018-11-29T16:21:24.633Z,6.92
2018-11-29T16:23:54.333Z,7.20
2018-11-29T16:26:24.049Z,7.20
2018-11-29T16:28:53.713Z,7.32
2018-11-29T16:31:23.410Z,7.44
2018-11-29T16:33:53.070Z,7.45
2018-11-29T16:36:22.746Z,7.54
2018-11-29T16:38:52.472Z,7.56
2018-11-29T16:41:22.149Z,7.53
2018-11-29T16:43:51.821Z,7.78
2018-11-29T16:46:21.570Z,7.77
2018-11-29T16:48:51.234Z,7.95
2018-11-29T16:51:20.922Z,8.11
2018-11-29T16:53:50.573Z,8.13
2018-11-29T16:56:20.248Z,8.20
2018-11-29T16:58:49.904Z,8.21
2018-11-29T17:01:19.577Z,8.28
2018-11-29T17:03:49.265Z,8.16
2018-11-29T17:06:18.953Z,8.23
2018-11-29T17:08:48.600Z,8.39
2018-11-29T17:11:18.274Z,8.14
2018-11-29T17:13:48.025Z,8.02
2018-11-29T17:16:17.713Z,7.87
2018-11-29T17:18:47.424Z,7.89
2018-11-29T17:21:17.129Z,7.75
2018-11-29T17:23:46.803Z,7.64
2018-11-29T17:26:16.549Z,7.57
2018-11-29T17:28:46.301Z,7.44
2018-11-29T17:31:16.001Z,7.35
2018-11-29T17:33:45.710Z,7.14
2018-11-29T17:36:15.409Z,7.04
2018-11-29T17:38:45.094Z,6.93
2018-11-29T17:41:14.753Z,6.78
2018-11-29T17:43:44.437Z,6.73
2018-11-29T17:46:14.149Z,6.56
2018-11-29T17:48:43.814Z,6.35
2018-11-29T17:51:13.480Z,6.22
2018-11-29T17:53:43.281Z,6.15
2018-11-29T17:56:12.959Z,6.07
2018-11-29T17:58:42.638Z,5.94
2018-11-29T18:01:12.305Z,5.98
2018-11-29T18:03:41.998Z,6.00
2018-11-29T18:06:11.741Z,6.09
2018-11-29T18:08:41.399Z,6.20
2018-11-29T18:11:11.073Z,6.19
2018-11-29T18:13:41.653Z,6.09
2018-11-29T18:16:11.333Z,6.06
2018-11-29T18:18:41.021Z,5.93
2018-11-29T18:21:11.044Z,5.82
2018-11-29T18:23:40.725Z,5.76
2018-11-29T18:26:10.401Z,5.74
2018-11-29T18:28:40.353Z,5.59
2018-11-29T18:31:10.038Z,5.53
2018-11-29T18:33:39.717Z,5.39
2018-11-29T18:36:14.186Z,5.31
2018-11-29T18:38:39.109Z,5.25
2018-11-29T18:41:08.785Z,5.13
2018-11-29T18:43:38.750Z,5.02
2018-11-29T18:46:09.318Z,5.00
2018-11-29T18:48:39.221Z,4.94
2018-11-29T18:51:08.888Z,4.87
2018-11-29T18:53:38.588Z,4.80
2018-11-29T18:56:08.288Z,4.71
2018-11-29T18:58:37.943Z,4.61
2018-11-29T19:01:07.845Z,4.64
2018-11-29T19:03:37.534Z,4.54
2018-11-29T19:06:07.325Z,4.50
2018-11-29T19:08:36.960Z,4.45
2018-11-29T19:11:06.645Z,4.48
2018-11-29T19:13:36.313Z,4.44
2018-11-29T19:16:06.367Z,4.40
2018-11-29T19:18:36.024Z,4.34
2018-11-29T19:21:05.988Z,4.33
2018-11-29T19:23:35.643Z,4.25
2018-11-29T19:26:06.479Z,4.22
2018-11-29T19:28:36.081Z,4.18
2018-11-29T19:31:05.930Z,4.17
2018-11-29T19:33:35.611Z,4.11
2018-11-29T19:36:05.397Z,4.03
2018-11-29T19:38:35.066Z,4.01
2018-11-29T19:41:04.841Z,4.00
2018-11-29T19:43:34.521Z,4.03
2018-11-29T19:46:04.237Z,4.05
2018-11-29T19:48:33.931Z,4.07
2018-11-29T19:51:03.620Z,4.05
2018-11-29T19:53:33.285Z,4.04
2018-11-29T19:56:03.542Z,4.07
2018-11-29T19:58:33.201Z,4.14
2018-11-29T20:01:02.915Z,4.08
2018-11-29T20:03:32.643Z,4.09
2018-11-29T20:06:02.353Z,4.11
2018-11-29T20:08:32.093Z,4.24
2018-11-29T20:11:02.658Z,4.17
2018-11-29T20:13:32.318Z,4.17
2018-11-29T20:16:02.060Z,4.17
2018-11-29T20:18:31.715Z,4.15
2018-11-29T20:21:01.405Z,4.15
2018-11-29T20:23:31.061Z,4.16
2018-11-29T20:26:00.787Z,4.15
2018-11-29T20:28:30.458Z,4.17
2018-11-29T20:31:00.140Z,4.20
2018-11-29T20:33:29.806Z,4.19
2018-11-29T20:35:59.609Z,4.24
2018-11-29T20:38:29.281Z,4.21
2018-11-29T20:40:58.937Z,4.19
2018-11-29T20:43:28.653Z,4.23
2018-11-29T20:45:58.373Z,4.30
2018-11-29T20:48:29.078Z,4.45
2018-11-29T20:50:59.604Z,4.44
2018-11-29T20:53:36.676Z,4.38
2018-11-29T20:56:08.058Z,4.43
2018-11-29T20:58:37.801Z,4.43
2018-11-29T21:01:08.205Z,4.69
2018-11-29T21:03:37.962Z,4.76
2018-11-29T21:06:09.649Z,4.87
2018-11-29T21:08:39.323Z,4.69
2018-11-29T21:11:09.021Z,4.59
2018-11-29T21:13:40.549Z,4.68
2018-11-29T21:16:10.245Z,4.84
2018-11-29T21:18:40.012Z,4.86
2018-11-29T21:21:09.641Z,4.75
2018-11-29T21:23:39.325Z,4.76
2018-11-29T21:26:08.990Z,4.75
2018-11-29T21:28:38.686Z,4.67
2018-11-29T21:31:08.404Z,4.67
2018-11-29T21:33:38.066Z,4.81
2018-11-29T21:36:07.724Z,4.86
2018-11-29T21:38:37.419Z,4.85
2018-11-29T21:41:07.105Z,4.92
2018-11-29T21:43:36.782Z,5.08
2018-11-29T21:46:06.441Z,4.96
2018-11-29T21:48:36.105Z,4.80
2018-11-29T21:51:05.772Z,4.86
2018-11-29T21:53:35.437Z,4.76
2018-11-29T21:56:05.095Z,4.69
2018-11-29T21:58:34.801Z,4.78
2018-11-29T22:01:04.470Z,4.83
2018-11-29T22:03:34.134Z,4.79
2018-11-29T22:06:03.790Z,4.78
2018-11-29T22:08:33.449Z,4.73
2018-11-29T22:11:03.241Z,4.85
2018-11-29T22:13:32.908Z,4.91
2018-11-29T22:16:03.053Z,4.93
2018-11-29T22:18:33.545Z,4.94
2018-11-29T22:21:04.832Z,4.88
2018-11-29T22:23:35.580Z,4.84
2018-11-29T22:26:08.886Z,4.82
2018-11-29T22:28:38.607Z,4.91
2018-11-29T22:31:08.297Z,4.84
2018-11-29T22:33:37.981Z,4.93
2018-11-29T22:36:07.637Z,4.82
2018-11-29T22:38:37.301Z,4.81
2018-11-29T22:41:06.961Z,4.77
2018-11-29T22:43:36.726Z,4.59
2018-11-29T22:46:06.394Z,4.54
2018-11-29T22:48:36.079Z,4.46
2018-11-29T22:51:05.745Z,4.40
2018-11-29T22:53:35.410Z,4.40
2018-11-29T22:56:05.073Z,4.31
2018-11-29T22:58:34.737Z,4.32
2018-11-29T23:01:08.565Z,4.26
2018-11-29T23:03:38.238Z,4.25
2018-11-29T23:06:07.923Z,4.39
2018-11-29T23:08:37.586Z,4.27
2018-11-29T23:11:07.274Z,4.25
2018-11-29T23:13:36.946Z,4.53
2018-11-29T23:16:06.707Z,4.54
2018-11-29T23:18:36.357Z,4.36
2018-11-29T23:21:06.129Z,4.52
2018-11-29T23:23:35.795Z,4.43
2018-11-29T23:26:05.766Z,4.34
2018-11-29T23:28:35.417Z,4.54
2018-11-29T23:31:05.101Z,4.52
2018-11-29T23:33:34.752Z,4.36
2018-11-29T23:36:04.457Z,4.30
2018-11-29T23:38:34.131Z,4.29
2018-11-29T23:41:03.781Z,4.26
2018-11-29T23:43:33.465Z,4.19
2018-11-29T23:46:03.167Z,4.15
2018-11-29T23:48:32.819Z,4.18
2018-11-29T23:51:02.685Z,4.26
2018-11-29T23:53:32.335Z,4.24
2018-11-29T23:56:02.010Z,4.19
2018-11-29T23:58:31.670Z,4.18
